createdAt,value
2018-12-16T00:01:39.453Z,22.93
2018-12-16T00:04:06.841Z,56.47
2018-12-16T00:06:34.377Z,42.17
2018-12-16T00:09:01.894Z,60.37
2018-12-16T00:11:29.299Z,46.93
2018-12-16T00:13:56.794Z,32.90
2018-12-16T00:16:24.214Z,49.70
2018-12-16T00:18:51.721Z,48.23
2018-12-16T00:21:19.118Z,29.27
2018-12-16T00:23:46.591Z,54.43
2018-12-16T00:26:14.001Z,40.37
2018-12-16T00:28:41.405Z,56.87
2018-12-16T00:31:08.814Z,30.70
2018-12-16T00:33:36.599Z,36.43
2018-12-16T00:36:03.972Z,44.03
2018-12-16T00:38:31.363Z,45.47
2018-12-16T00:40:58.791Z,31.70
2018-12-16T00:43:26.208Z,48.90
2018-12-16T00:45:53.599Z,35.87
2018-12-16T00:48:21.292Z,20.20
2018-12-16T00:50:48.704Z,43.60
2018-12-16T00:53:16.083Z,25.27
2018-12-16T00:55:43.479Z,54.10
2018-12-16T00:58:10.894Z,21.17
2018-12-16T01:00:38.311Z,65.60
2018-12-16T01:03:05.740Z,42.83
2018-12-16T01:05:33.263Z,45.93
2018-12-16T01:08:00.679Z,35.17
2018-12-16T01:10:28.093Z,66.90
2018-12-16T01:12:55.508Z,24.23
2018-12-16T01:15:22.929Z,73.80
2018-12-16T01:17:50.313Z,47.63
2018-12-16T01:20:17.708Z,57.13
2018-12-16T01:22:45.144Z,63.57
2018-12-16T01:25:12.581Z,72.10
2018-12-16T01:27:40.012Z,66.93
2018-12-16T01:30:07.521Z,71.07
2018-12-16T01:32:34.932Z,67.10
2018-12-16T01:35:02.360Z,57.83
2018-12-16T01:37:29.830Z,66.77
2018-12-16T01:39:57.263Z,64.50
2018-12-16T01:42:24.653Z,71.50
2018-12-16T01:44:52.248Z,64.93
2018-12-16T01:47:19.667Z,70.00
2018-12-16T01:49:47.063Z,69.93
2018-12-16T01:52:14.493Z,55.27
2018-12-16T01:54:41.914Z,56.77
2018-12-16T01:57:09.323Z,76.20
2018-12-16T01:59:36.740Z,44.97
2018-12-16T02:02:04.194Z,72.73
2018-12-16T02:04:31.591Z,40.80
2018-12-16T02:06:59.111Z,22.40
2018-12-16T02:09:26.678Z,34.00
2018-12-16T02:11:54.209Z,57.97
2018-12-16T02:14:21.649Z,38.77
2018-12-16T02:16:49.092Z,58.33
2018-12-16T02:19:16.496Z,60.33
2018-12-16T02:21:43.916Z,52.70
2018-12-16T02:24:11.320Z,38.60
2018-12-16T02:26:38.748Z,62.90
2018-12-16T02:29:06.120Z,57.93
2018-12-16T02:31:33.526Z,48.27
2018-12-16T02:34:00.935Z,61.17
2018-12-16T02:36:28.534Z,38.20
2018-12-16T02:38:55.922Z,54.03
2018-12-16T02:41:23.305Z,58.43
2018-12-16T02:43:50.708Z,51.10
2018-12-16T02:46:18.104Z,61.07
2018-12-16T02:48:45.610Z,56.67
2018-12-16T02:51:13.058Z,42.33
2018-12-16T02:53:40.439Z,48.53
2018-12-16T02:56:07.826Z,63.53
2018-12-16T02:58:35.248Z,52.50
2018-12-16T03:01:02.911Z,37.70
2018-12-16T03:03:30.312Z,56.00
2018-12-16T03:05:57.729Z,48.63
2018-12-16T03:08:25.116Z,62.67
2018-12-16T03:10:52.724Z,34.97
2018-12-16T03:13:20.097Z,57.13
2018-12-16T03:15:47.493Z,45.97
2018-12-16T03:18:14.880Z,45.23
2018-12-16T03:20:43.046Z,32.00
2018-12-16T03:23:12.419Z,51.03
2018-12-16T03:25:40.020Z,70.60
2018-12-16T03:28:07.403Z,34.43
2018-12-16T03:30:34.863Z,48.33
2018-12-16T03:33:02.276Z,34.70
2018-12-16T03:35:29.664Z,40.60
2018-12-16T03:37:57.155Z,48.43
2018-12-16T03:40:24.552Z,51.57
2018-12-16T03:42:52.015Z,62.23
2018-12-16T03:45:19.408Z,39.87
2018-12-16T03:47:46.793Z,47.50
2018-12-16T03:50:14.231Z,47.53
2018-12-16T03:52:41.620Z,54.50
2018-12-16T03:55:09.138Z,26.60
2018-12-16T03:57:36.831Z,53.67
2018-12-16T04:00:05.000Z,43.40
2018-12-16T04:02:32.397Z,42.40
2018-12-16T04:04:59.805Z,43.77
2018-12-16T04:07:27.197Z,56.17
2018-12-16T04:09:54.574Z,50.83
2018-12-16T04:12:22.123Z,39.33
2018-12-16T04:14:49.550Z,33.10
2018-12-16T04:17:16.951Z,49.53
2018-12-16T04:19:44.496Z,47.60
2018-12-16T04:22:11.910Z,53.27
2018-12-16T04:24:39.291Z,50.87
2018-12-16T04:27:06.706Z,40.27
2018-12-16T04:29:34.105Z,42.80
2018-12-16T04:32:01.529Z,40.23
2018-12-16T04:34:28.920Z,43.43
2018-12-16T04:36:56.304Z,29.30
2018-12-16T04:39:23.710Z,33.83
2018-12-16T04:41:51.142Z,34.90
2018-12-16T04:44:18.534Z,29.33
2018-12-16T04:46:45.959Z,29.53
2018-12-16T04:49:13.338Z,40.53
2018-12-16T04:51:40.796Z,29.43
2018-12-16T04:54:08.215Z,22.80
2018-12-16T04:56:35.612Z,30.90
2018-12-16T04:59:03.010Z,34.37
2018-12-16T05:01:30.583Z,41.40
2018-12-16T05:03:57.998Z,36.23
2018-12-16T05:06:25.383Z,23.77
2018-12-16T05:08:52.859Z,40.57
2018-12-16T05:11:20.230Z,20.40
2018-12-16T05:13:47.613Z,32.37
2018-12-16T05:16:15.010Z,39.20
2018-12-16T05:18:42.445Z,37.77
2018-12-16T05:21:09.908Z,40.00
2018-12-16T05:23:41.789Z,20.50
2018-12-16T05:26:06.731Z,25.90
2018-12-16T05:28:34.123Z,28.57
2018-12-16T05:31:01.502Z,33.63
2018-12-16T05:33:28.896Z,21.63
2018-12-16T05:35:56.301Z,23.13
2018-12-16T05:38:23.722Z,35.30
2018-12-16T05:40:51.149Z,29.43
2018-12-16T05:43:18.554Z,33.10
2018-12-16T05:45:45.951Z,38.60
2018-12-16T05:48:13.359Z,36.90
2018-12-16T05:50:40.769Z,43.13
2018-12-16T05:53:08.193Z,32.63
2018-12-16T05:55:35.582Z,37.80
2018-12-16T05:58:03.027Z,24.83
2018-12-16T06:00:30.410Z,39.37
2018-12-16T06:02:57.793Z,36.70
2018-12-16T06:05:25.175Z,21.67
2018-12-16T06:07:52.598Z,36.80
2018-12-16T06:10:20.036Z,35.70
2018-12-16T06:12:47.492Z,21.07
2018-12-16T06:15:14.900Z,31.00
2018-12-16T06:17:42.351Z,35.60
2018-12-16T06:20:09.746Z,32.13
2018-12-16T06:22:37.148Z,49.20
2018-12-16T06:25:04.775Z,26.07
2018-12-16T06:27:32.228Z,36.33
2018-12-16T06:29:59.845Z,41.73
2018-12-16T06:32:27.311Z,46.13
2018-12-16T06:34:54.882Z,43.93
2018-12-16T06:37:22.322Z,52.23
2018-12-16T06:39:49.730Z,38.87
2018-12-16T06:42:17.322Z,51.07
2018-12-16T06:44:44.938Z,42.17
2018-12-16T06:47:12.470Z,41.83
2018-12-16T06:49:39.878Z,43.07
2018-12-16T06:52:07.248Z,35.50
2018-12-16T06:54:34.633Z,47.40
2018-12-16T06:57:02.014Z,59.80
2018-12-16T06:59:29.407Z,24.10
2018-12-16T07:01:58.887Z,35.03
2018-12-16T07:04:26.278Z,42.90
2018-12-16T07:06:54.544Z,47.33
2018-12-16T07:09:22.000Z,42.77
2018-12-16T07:11:49.465Z,49.67
2018-12-16T07:14:16.905Z,62.60
2018-12-16T07:16:44.338Z,31.37
2018-12-16T07:19:11.774Z,52.53
2018-12-16T07:21:39.207Z,48.17
2018-12-16T07:24:09.362Z,41.23
2018-12-16T07:26:36.034Z,52.13
2018-12-16T07:29:03.505Z,58.30
2018-12-16T07:31:31.136Z,56.17
2018-12-16T07:33:58.519Z,51.10
2018-12-16T07:36:26.013Z,62.33
2018-12-16T07:38:53.520Z,48.40
2018-12-16T07:41:21.011Z,53.00
2018-12-16T07:43:48.599Z,51.63
2018-12-16T07:46:16.022Z,52.30
2018-12-16T07:48:43.694Z,45.60
2018-12-16T07:51:11.241Z,38.87
2018-12-16T07:53:38.656Z,44.73
2018-12-16T07:56:06.073Z,27.57
2018-12-16T07:58:33.481Z,55.87
2018-12-16T08:01:00.882Z,56.10
2018-12-16T08:03:28.267Z,43.73
2018-12-16T08:05:55.691Z,50.33
2018-12-16T08:08:23.213Z,48.80
2018-12-16T08:10:50.643Z,49.17
2018-12-16T08:13:18.051Z,30.20
2018-12-16T08:15:45.430Z,67.17
2018-12-16T08:18:12.871Z,51.17
2018-12-16T08:20:40.282Z,38.60
2018-12-16T08:23:07.693Z,31.27
2018-12-16T08:25:35.152Z,49.07
2018-12-16T08:28:02.579Z,51.87
2018-12-16T08:30:29.995Z,46.70
2018-12-16T08:32:57.558Z,44.30
2018-12-16T08:35:24.941Z,51.47
2018-12-16T08:37:52.468Z,62.67
2018-12-16T08:40:19.904Z,43.47
2018-12-16T08:42:47.369Z,37.73
2018-12-16T08:45:14.784Z,39.50
2018-12-16T08:47:42.200Z,43.73
2018-12-16T08:50:09.623Z,45.87
2018-12-16T08:52:37.027Z,41.90
2018-12-16T08:55:04.589Z,41.10
2018-12-16T08:57:31.996Z,49.90
2018-12-16T08:59:59.452Z,48.80
2018-12-16T09:02:26.876Z,37.90
2018-12-16T09:04:54.297Z,37.10
2018-12-16T09:07:21.717Z,39.53
2018-12-16T09:09:49.134Z,22.57
2018-12-16T09:12:16.547Z,30.93
2018-12-16T09:14:43.972Z,37.70
2018-12-16T09:17:11.413Z,23.63
2018-12-16T09:19:38.845Z,31.83
2018-12-16T09:22:06.318Z,36.27
2018-12-16T09:24:37.274Z,30.63
2018-12-16T09:27:03.285Z,30.20
2018-12-16T09:29:30.688Z,34.27
2018-12-16T09:31:58.177Z,37.67
2018-12-16T09:34:25.842Z,33.87
2018-12-16T09:36:53.414Z,132.90
2018-12-16T09:39:21.007Z,14.10
2018-12-16T09:41:48.400Z,29.27
2018-12-16T09:44:15.806Z,23.40
2018-12-16T09:46:43.285Z,23.97
2018-12-16T09:49:10.683Z,26.90
2018-12-16T09:51:38.103Z,26.13
2018-12-16T09:54:05.516Z,28.47
2018-12-16T09:56:32.906Z,29.80
2018-12-16T09:59:00.486Z,24.97
2018-12-16T10:01:27.993Z,26.73
2018-12-16T10:03:55.388Z,23.43
2018-12-16T10:06:22.824Z,22.53
2018-12-16T10:08:50.233Z,23.00
2018-12-16T10:11:17.626Z,22.57
2018-12-16T10:13:45.030Z,30.23
2018-12-16T10:16:12.456Z,24.13
2018-12-16T10:18:39.856Z,25.97
2018-12-16T10:21:07.335Z,31.73
2018-12-16T10:23:34.738Z,25.77
2018-12-16T10:26:02.198Z,24.73
2018-12-16T10:28:29.669Z,22.87
2018-12-16T10:30:57.100Z,24.67
2018-12-16T10:33:24.507Z,22.93
2018-12-16T10:35:52.075Z,14.10
2018-12-16T10:38:20.231Z,27.13
2018-12-16T10:40:47.709Z,25.67
2018-12-16T10:43:15.136Z,22.97
2018-12-16T10:45:42.505Z,20.50
2018-12-16T10:48:10.121Z,13.60
2018-12-16T10:50:37.538Z,20.13
2018-12-16T10:53:04.940Z,17.77
2018-12-16T10:55:32.357Z,31.70
2018-12-16T10:57:59.788Z,31.60
2018-12-16T11:00:32.978Z,14.00
2018-12-16T11:03:00.449Z,22.80
2018-12-16T11:05:28.031Z,22.57
2018-12-16T11:07:55.459Z,19.10
2018-12-16T11:10:22.953Z,26.23
2018-12-16T11:12:50.655Z,24.10
2018-12-16T11:15:18.201Z,26.43
2018-12-16T11:17:45.596Z,19.83
2018-12-16T11:20:13.720Z,22.43
2018-12-16T11:22:41.129Z,28.10
2018-12-16T11:25:09.983Z,27.73
2018-12-16T11:27:37.378Z,20.70
2018-12-16T11:30:05.442Z,23.00
2018-12-16T11:32:32.863Z,22.40
2018-12-16T11:35:00.264Z,18.20
2018-12-16T11:37:27.687Z,31.57
2018-12-16T11:39:55.117Z,23.17
2018-12-16T11:42:22.491Z,18.70
2018-12-16T11:44:49.889Z,20.93
2018-12-16T11:47:17.403Z,26.53
2018-12-16T11:49:45.048Z,18.30
2018-12-16T11:52:12.475Z,17.80
2018-12-16T11:54:39.992Z,16.47
2018-12-16T11:57:07.391Z,19.93
2018-12-16T11:59:34.806Z,19.63
2018-12-16T12:02:02.394Z,22.07
2018-12-16T12:04:29.827Z,28.13
2018-12-16T12:06:57.391Z,18.40
2018-12-16T12:09:24.805Z,21.20
2018-12-16T12:11:52.425Z,20.73
2018-12-16T12:14:19.853Z,23.57
2018-12-16T12:16:47.235Z,22.57
2018-12-16T12:19:14.623Z,23.57
2018-12-16T12:21:42.087Z,20.50
2018-12-16T12:24:09.506Z,19.40
2018-12-16T12:26:37.011Z,25.20
2018-12-16T12:29:04.475Z,20.03
2018-12-16T12:31:31.890Z,17.17
2018-12-16T12:33:59.510Z,20.43
2018-12-16T12:36:26.989Z,19.87
2018-12-16T12:38:54.441Z,23.17
2018-12-16T12:41:21.886Z,21.80
2018-12-16T12:43:49.869Z,20.90
2018-12-16T12:46:17.321Z,21.40
2018-12-16T12:48:45.121Z,17.50
2018-12-16T12:51:12.661Z,16.87
2018-12-16T12:53:40.120Z,18.47
2018-12-16T12:56:07.711Z,18.30
2018-12-16T12:58:35.170Z,18.83
2018-12-16T13:01:02.612Z,20.37
2018-12-16T13:03:30.043Z,25.70
2018-12-16T13:05:57.724Z,22.00
2018-12-16T13:08:25.211Z,20.53
2018-12-16T13:10:53.037Z,22.00
2018-12-16T13:13:20.553Z,15.73
2018-12-16T13:15:47.955Z,20.07
2018-12-16T13:18:15.464Z,19.43
2018-12-16T13:20:42.906Z,22.07
2018-12-16T13:23:10.318Z,18.60
2018-12-16T13:25:43.241Z,27.30
2018-12-16T13:28:10.682Z,18.60
2018-12-16T13:30:38.151Z,19.63
2018-12-16T13:33:05.579Z,23.30
2018-12-16T13:35:33.042Z,27.97
2018-12-16T13:38:00.473Z,22.97
2018-12-16T13:40:27.901Z,24.83
2018-12-16T13:42:55.338Z,21.37
2018-12-16T13:45:22.848Z,25.93
2018-12-16T13:47:50.265Z,26.20
2018-12-16T13:50:17.716Z,19.97
2018-12-16T13:52:45.165Z,14.70
2018-12-16T13:55:12.601Z,10.43
2018-12-16T13:57:40.244Z,11.77
2018-12-16T14:00:07.979Z,23.07
2018-12-16T14:02:35.385Z,23.17
2018-12-16T14:05:03.772Z,24.30
2018-12-16T14:07:31.234Z,25.03
2018-12-16T14:09:58.640Z,22.83
2018-12-16T14:12:26.045Z,25.60
2018-12-16T14:14:53.528Z,15.57
2018-12-16T14:17:20.940Z,19.33
2018-12-16T14:19:48.358Z,21.20
2018-12-16T14:22:15.780Z,19.33
2018-12-16T14:24:43.203Z,22.33
2018-12-16T14:27:10.988Z,21.87
2018-12-16T14:29:42.007Z,19.77
2018-12-16T14:32:09.624Z,15.03
2018-12-16T14:34:38.651Z,19.37
2018-12-16T14:37:06.076Z,37.20
2018-12-16T14:39:33.572Z,25.83
2018-12-16T14:42:01.181Z,21.40
2018-12-16T14:44:28.654Z,13.93
2018-12-16T14:46:56.180Z,22.07
2018-12-16T14:49:23.561Z,18.70
2018-12-16T14:51:51.273Z,14.73
2018-12-16T14:54:18.839Z,20.87
2018-12-16T14:56:46.325Z,16.07
2018-12-16T14:59:13.815Z,14.80
2018-12-16T15:01:41.243Z,19.13
2018-12-16T15:04:08.678Z,10.40
2018-12-16T15:06:36.115Z,18.40
2018-12-16T15:09:05.122Z,20.30
2018-12-16T15:11:32.545Z,15.27
2018-12-16T15:14:00.035Z,22.00
2018-12-16T15:16:27.500Z,11.13
2018-12-16T15:18:54.917Z,21.47
2018-12-16T15:21:22.366Z,19.67
2018-12-16T15:23:49.784Z,21.63
2018-12-16T15:26:17.165Z,23.97
2018-12-16T15:28:44.600Z,19.60
2018-12-16T15:31:12.022Z,13.03
2018-12-16T15:33:39.401Z,20.03
2018-12-16T15:36:06.852Z,22.33
2018-12-16T15:38:34.247Z,12.80
2018-12-16T15:41:01.650Z,19.93
2018-12-16T15:43:29.094Z,20.73
2018-12-16T15:45:56.567Z,15.57
2018-12-16T15:48:24.072Z,21.20
2018-12-16T15:50:51.528Z,18.67
2018-12-16T15:53:18.945Z,21.73
2018-12-16T15:55:46.429Z,21.00
2018-12-16T15:58:13.820Z,20.60
2018-12-16T16:00:41.245Z,18.23
2018-12-16T16:03:08.770Z,25.00
2018-12-16T16:05:36.183Z,24.23
2018-12-16T16:08:03.588Z,22.37
2018-12-16T16:10:31.035Z,23.73
2018-12-16T16:12:58.465Z,25.73
2018-12-16T16:15:26.216Z,19.10
2018-12-16T16:17:53.763Z,27.73
2018-12-16T16:20:21.266Z,25.03
2018-12-16T16:22:48.661Z,27.20
2018-12-16T16:25:16.886Z,14.60
2018-12-16T16:27:44.447Z,30.93
2018-12-16T16:30:11.958Z,23.93
2018-12-16T16:32:39.518Z,28.67
2018-12-16T16:35:06.913Z,28.83
2018-12-16T16:37:34.334Z,14.87
2018-12-16T16:40:01.748Z,27.23
2018-12-16T16:42:29.177Z,22.80
2018-12-16T16:44:56.548Z,20.63
2018-12-16T16:47:24.083Z,26.80
2018-12-16T16:49:51.499Z,31.20
2018-12-16T16:52:18.882Z,24.43
2018-12-16T16:54:46.331Z,30.67
2018-12-16T16:57:13.766Z,17.20
2018-12-16T16:59:41.273Z,25.97
2018-12-16T17:02:08.693Z,26.57
2018-12-16T17:04:36.107Z,31.40
2018-12-16T17:07:03.531Z,26.90
2018-12-16T17:09:30.954Z,19.37
2018-12-16T17:11:58.535Z,29.73
2018-12-16T17:14:26.012Z,34.37
2018-12-16T17:16:53.673Z,34.70
2018-12-16T17:19:21.692Z,32.50
2018-12-16T17:21:49.499Z,33.60
2018-12-16T17:24:18.476Z,41.47
2018-12-16T17:26:46.160Z,32.00
2018-12-16T17:29:14.893Z,30.67
2018-12-16T17:31:42.402Z,35.43
2018-12-16T17:34:09.818Z,34.07
2018-12-16T17:36:37.233Z,34.93
2018-12-16T17:39:06.029Z,28.60
2018-12-16T17:41:33.587Z,35.23
2018-12-16T17:44:01.054Z,14.83
2018-12-16T17:46:28.778Z,27.10
2018-12-16T17:48:56.222Z,37.63
2018-12-16T17:51:23.644Z,26.73
2018-12-16T17:53:51.102Z,26.43
2018-12-16T17:56:18.521Z,29.53
2018-12-16T17:58:45.939Z,30.13
2018-12-16T18:01:13.354Z,20.90
2018-12-16T18:03:40.817Z,29.87
2018-12-16T18:06:08.302Z,33.40
2018-12-16T18:08:35.691Z,35.57
2018-12-16T18:11:03.254Z,33.87
2018-12-16T18:13:30.676Z,38.10
2018-12-16T18:15:58.192Z,32.67
2018-12-16T18:18:25.614Z,26.10
2018-12-16T18:20:53.122Z,22.67
2018-12-16T18:23:20.500Z,31.70
2018-12-16T18:25:47.913Z,22.00
2018-12-16T18:28:15.303Z,17.27
2018-12-16T18:30:42.706Z,36.93
2018-12-16T18:33:10.403Z,37.50
2018-12-16T18:35:37.813Z,36.93
2018-12-16T18:38:05.254Z,35.00
2018-12-16T18:40:32.736Z,41.77
2018-12-16T18:43:00.130Z,40.07
2018-12-16T18:45:27.544Z,34.33
2018-12-16T18:47:55.010Z,41.23
2018-12-16T18:50:22.397Z,40.87
2018-12-16T18:52:49.842Z,50.13
2018-12-16T18:55:17.273Z,37.93
2018-12-16T18:57:44.664Z,45.00
2018-12-16T19:00:13.249Z,39.47
2018-12-16T19:02:40.705Z,39.17
2018-12-16T19:05:08.330Z,32.27
2018-12-16T19:07:35.739Z,44.90
2018-12-16T19:10:03.321Z,41.17
2018-12-16T19:12:30.722Z,42.77
2018-12-16T19:14:58.374Z,40.13
2018-12-16T19:17:25.771Z,36.67
2018-12-16T19:19:53.225Z,41.13
2018-12-16T19:22:21.021Z,30.20
2018-12-16T19:24:48.423Z,26.30
2018-12-16T19:27:15.954Z,40.77
2018-12-16T19:29:43.558Z,37.17
2018-12-16T19:32:10.976Z,32.07
2018-12-16T19:34:38.362Z,37.50
2018-12-16T19:37:06.128Z,39.73
2018-12-16T19:39:34.272Z,37.07
2018-12-16T19:42:01.771Z,35.10
2018-12-16T19:44:29.239Z,31.33
2018-12-16T19:46:58.699Z,42.03
2018-12-16T19:49:26.963Z,34.43
2018-12-16T19:51:54.420Z,35.40
2018-12-16T19:54:22.171Z,44.20
2018-12-16T19:56:49.613Z,37.03
2018-12-16T19:59:17.133Z,47.70
2018-12-16T20:01:44.890Z,34.33
2018-12-16T20:04:16.381Z,40.57
2018-12-16T20:06:43.986Z,44.97
2018-12-16T20:09:11.531Z,25.00
2018-12-16T20:11:38.951Z,19.80
2018-12-16T20:14:06.333Z,24.13
2018-12-16T20:16:33.736Z,31.33
2018-12-16T20:19:01.424Z,30.93
2018-12-16T20:21:28.835Z,16.60
2018-12-16T20:23:56.238Z,33.10
2018-12-16T20:26:23.666Z,22.03
2018-12-16T20:28:51.170Z,26.43
2018-12-16T20:31:18.603Z,25.57
2018-12-16T20:33:46.016Z,28.40
2018-12-16T20:36:13.394Z,29.13
2018-12-16T20:38:40.773Z,30.50
2018-12-16T20:41:08.228Z,32.10
2018-12-16T20:43:35.682Z,34.13
2018-12-16T20:46:03.257Z,27.33
2018-12-16T20:48:30.842Z,24.90
2018-12-16T20:50:58.385Z,29.87
2018-12-16T20:53:25.844Z,18.50
2018-12-16T20:55:53.389Z,35.17
2018-12-16T20:58:20.836Z,29.70
2018-12-16T21:00:48.283Z,22.73
2018-12-16T21:03:15.734Z,33.17
2018-12-16T21:05:43.171Z,32.87
2018-12-16T21:08:10.604Z,30.03
2018-12-16T21:10:37.994Z,25.30
2018-12-16T21:13:11.072Z,25.90
2018-12-16T21:15:44.197Z,26.33
2018-12-16T21:18:17.307Z,22.87
2018-12-16T21:20:44.900Z,30.03
2018-12-16T21:23:12.321Z,22.90
2018-12-16T21:25:39.733Z,16.87
2018-12-16T21:28:07.158Z,22.20
2018-12-16T21:30:34.587Z,22.73
2018-12-16T21:33:02.066Z,23.13
2018-12-16T21:35:29.478Z,29.23
2018-12-16T21:37:56.918Z,29.13
2018-12-16T21:40:24.341Z,21.67
2018-12-16T21:42:51.824Z,28.73
2018-12-16T21:45:19.236Z,18.23
2018-12-16T21:47:46.649Z,21.00
2018-12-16T21:50:14.045Z,22.57
2018-12-16T21:52:41.600Z,18.80
2018-12-16T21:55:09.080Z,17.97
2018-12-16T21:57:36.480Z,12.70
2018-12-16T22:00:04.788Z,18.30
2018-12-16T22:02:32.181Z,22.57
2018-12-16T22:05:00.200Z,21.57
2018-12-16T22:07:27.658Z,26.03
2018-12-16T22:09:55.113Z,17.77
2018-12-16T22:12:22.568Z,16.70
2018-12-16T22:14:49.981Z,17.77
2018-12-16T22:17:17.420Z,22.83
2018-12-16T22:19:44.862Z,17.40
2018-12-16T22:22:12.278Z,21.30
2018-12-16T22:24:39.651Z,18.30
2018-12-16T22:27:07.032Z,20.77
2018-12-16T22:29:34.445Z,21.37
2018-12-16T22:32:01.836Z,25.40
2018-12-16T22:34:29.280Z,20.17
2018-12-16T22:36:56.899Z,18.00
2018-12-16T22:39:24.348Z,20.43
2018-12-16T22:41:51.753Z,16.80
2018-12-16T22:44:19.269Z,21.70
2018-12-16T22:46:46.791Z,21.53
2018-12-16T22:49:14.209Z,18.60
2018-12-16T22:51:41.649Z,20.47
2018-12-16T22:54:09.098Z,25.07
2018-12-16T22:56:36.549Z,19.50
2018-12-16T22:59:04.187Z,18.73
2018-12-16T23:01:31.787Z,22.03
2018-12-16T23:03:59.207Z,19.93
2018-12-16T23:06:26.635Z,21.33
2018-12-16T23:08:54.187Z,25.60
2018-12-16T23:11:21.611Z,23.10
2018-12-16T23:13:49.009Z,26.27
2018-12-16T23:16:16.439Z,25.93
2018-12-16T23:18:44.090Z,26.83
2018-12-16T23:21:11.526Z,26.40
2018-12-16T23:23:38.969Z,23.97
2018-12-16T23:26:06.365Z,26.70
2018-12-16T23:28:33.959Z,26.37
2018-12-16T23:31:01.432Z,18.53
2018-12-16T23:33:28.831Z,24.33
2018-12-16T23:35:56.225Z,24.77
2018-12-16T23:38:23.726Z,23.93
2018-12-16T23:40:51.136Z,28.73
2018-12-16T23:43:18.513Z,25.17
2018-12-16T23:45:45.918Z,19.90
2018-12-16T23:48:13.427Z,23.43
2018-12-16T23:50:40.905Z,25.60
2018-12-16T23:53:08.436Z,23.27
2018-12-16T23:55:35.880Z,24.23
2018-12-16T23:58:03.269Z,23.53
